sensor_id;sensor_type;location;lat;lon;timestamp;P1;durP1;ratioP1;P2;durP2;ratioP2
30062;SDS011;16889;67.864;24.990;2023-12-28T00:08:31;7.77;;;3.20;;
30062;SDS011;16889;67.864;24.990;2023-12-28T00:13:17;8.43;;;3.75;;
30062;SDS011;16889;67.864;24.990;2023-12-28T00:22:49;6.83;;;2.90;;
30062;SDS011;16889;67.864;24.990;2023-12-28T00:32:22;6.05;;;2.90;;
30062;SDS011;16889;67.864;24.990;2023-12-28T00:41:54;8.13;;;3.20;;
30062;SDS011;16889;67.864;24.990;2023-12-28T00:51:26;5.00;;;2.33;;
30062;SDS011;16889;67.864;24.990;2023-12-28T00:56:12;7.80;;;2.83;;
30062;SDS011;16889;67.864;24.990;2023-12-28T01:05:43;6.33;;;3.33;;
30062;SDS011;16889;67.864;24.990;2023-12-28T01:10:32;5.38;;;2.90;;
30062;SDS011;16889;67.864;24.990;2023-12-28T01:15:18;4.57;;;2.63;;
30062;SDS011;16889;67.864;24.990;2023-12-28T01:20:06;6.20;;;2.75;;
30062;SDS011;16889;67.864;24.990;2023-12-28T01:24:52;5.70;;;2.60;;
30062;SDS011;16889;67.864;24.990;2023-12-28T01:29:38;4.45;;;2.40;;
30062;SDS011;16889;67.864;24.990;2023-12-28T01:34:24;5.20;;;2.85;;
30062;SDS011;16889;67.864;24.990;2023-12-28T01:39:11;7.07;;;2.45;;
30062;SDS011;16889;67.864;24.990;2023-12-28T01:43:58;5.43;;;2.50;;
30062;SDS011;16889;67.864;24.990;2023-12-28T01:48:44;8.20;;;3.60;;
30062;SDS011;16889;67.864;24.990;2023-12-28T01:53:32;9.45;;;3.55;;
30062;SDS011;16889;67.864;24.990;2023-12-28T01:58:18;7.53;;;3.25;;
30062;SDS011;16889;67.864;24.990;2023-12-28T02:03:05;10.57;;;3.35;;
30062;SDS011;16889;67.864;24.990;2023-12-28T02:07:52;11.32;;;3.10;;
30062;SDS011;16889;67.864;24.990;2023-12-28T02:12:38;8.27;;;3.13;;
30062;SDS011;16889;67.864;24.990;2023-12-28T02:17:38;6.93;;;3.55;;
30062;SDS011;16889;67.864;24.990;2023-12-28T02:22:34;5.80;;;2.95;;
30062;SDS011;16889;67.864;24.990;2023-12-28T02:27:21;7.60;;;3.42;;
30062;SDS011;16889;67.864;24.990;2023-12-28T02:32:07;7.00;;;3.40;;
30062;SDS011;16889;67.864;24.990;2023-12-28T02:36:56;9.35;;;3.70;;
30062;SDS011;16889;67.864;24.990;2023-12-28T02:41:43;9.18;;;3.45;;
30062;SDS011;16889;67.864;24.990;2023-12-28T02:46:30;10.05;;;4.40;;
30062;SDS011;16889;67.864;24.990;2023-12-28T02:51:16;10.25;;;3.60;;
30062;SDS011;16889;67.864;24.990;2023-12-28T02:56:02;7.07;;;2.42;;
30062;SDS011;16889;67.864;24.990;2023-12-28T03:00:49;8.13;;;2.55;;
30062;SDS011;16889;67.864;24.990;2023-12-28T03:05:35;6.72;;;3.03;;
30062;SDS011;16889;67.864;24.990;2023-12-28T03:10:21;7.47;;;3.10;;
30062;SDS011;16889;67.864;24.990;2023-12-28T03:15:07;5.90;;;2.60;;
30062;SDS011;16889;67.864;24.990;2023-12-28T03:19:54;4.78;;;2.30;;
30062;SDS011;16889;67.864;24.990;2023-12-28T03:24:39;4.90;;;2.20;;
30062;SDS011;16889;67.864;24.990;2023-12-28T03:29:26;5.88;;;2.60;;
30062;SDS011;16889;67.864;24.990;2023-12-28T03:34:13;5.05;;;2.47;;
30062;SDS011;16889;67.864;24.990;2023-12-28T03:38:59;5.25;;;2.58;;
30062;SDS011;16889;67.864;24.990;2023-12-28T03:43:45;6.93;;;2.78;;
30062;SDS011;16889;67.864;24.990;2023-12-28T03:48:32;4.90;;;2.00;;
30062;SDS011;16889;67.864;24.990;2023-12-28T03:53:18;4.30;;;2.33;;
30062;SDS011;16889;67.864;24.990;2023-12-28T03:58:04;4.47;;;2.10;;
30062;SDS011;16889;67.864;24.990;2023-12-28T04:02:49;6.15;;;2.53;;
30062;SDS011;16889;67.864;24.990;2023-12-28T04:07:36;5.40;;;2.63;;
30062;SDS011;16889;67.864;24.990;2023-12-28T04:12:22;5.53;;;2.17;;
30062;SDS011;16889;67.864;24.990;2023-12-28T04:17:08;6.13;;;2.50;;
30062;SDS011;16889;67.864;24.990;2023-12-28T04:21:53;6.57;;;2.67;;
30062;SDS011;16889;67.864;24.990;2023-12-28T04:26:41;4.03;;;2.20;;
30062;SDS011;16889;67.864;24.990;2023-12-28T04:31:27;8.75;;;3.22;;
30062;SDS011;16889;67.864;24.990;2023-12-28T04:36:13;4.95;;;2.50;;
30062;SDS011;16889;67.864;24.990;2023-12-28T04:40:59;10.20;;;3.63;;
30062;SDS011;16889;67.864;24.990;2023-12-28T04:45:46;7.18;;;3.28;;
30062;SDS011;16889;67.864;24.990;2023-12-28T04:50:32;7.45;;;3.30;;
30062;SDS011;16889;67.864;24.990;2023-12-28T04:55:18;10.55;;;4.20;;
30062;SDS011;16889;67.864;24.990;2023-12-28T05:00:06;10.82;;;3.70;;
30062;SDS011;16889;67.864;24.990;2023-12-28T05:04:53;5.82;;;2.53;;
30062;SDS011;16889;67.864;24.990;2023-12-28T05:09:39;5.47;;;2.13;;
30062;SDS011;16889;67.864;24.990;2023-12-28T05:14:25;6.65;;;2.40;;
30062;SDS011;16889;67.864;24.990;2023-12-28T05:19:11;11.02;;;3.88;;
30062;SDS011;16889;67.864;24.990;2023-12-28T05:23:57;7.88;;;3.92;;
30062;SDS011;16889;67.864;24.990;2023-12-28T05:28:43;11.90;;;3.33;;
30062;SDS011;16889;67.864;24.990;2023-12-28T05:33:29;8.45;;;3.17;;
30062;SDS011;16889;67.864;24.990;2023-12-28T05:38:15;8.43;;;3.33;;
30062;SDS011;16889;67.864;24.990;2023-12-28T05:43:01;12.27;;;4.22;;
30062;SDS011;16889;67.864;24.990;2023-12-28T05:47:47;8.23;;;3.10;;
30062;SDS011;16889;67.864;24.990;2023-12-28T05:52:33;7.93;;;3.22;;
30062;SDS011;16889;67.864;24.990;2023-12-28T05:57:19;8.32;;;2.92;;
30062;SDS011;16889;67.864;24.990;2023-12-28T06:02:05;7.45;;;2.75;;
30062;SDS011;16889;67.864;24.990;2023-12-28T06:06:51;9.80;;;3.75;;
30062;SDS011;16889;67.864;24.990;2023-12-28T06:11:37;27.15;;;7.38;;
30062;SDS011;16889;67.864;24.990;2023-12-28T06:16:23;15.52;;;5.57;;
30062;SDS011;16889;67.864;24.990;2023-12-28T06:21:10;20.20;;;5.70;;
30062;SDS011;16889;67.864;24.990;2023-12-28T06:25:56;25.55;;;7.30;;
30062;SDS011;16889;67.864;24.990;2023-12-28T06:30:42;32.13;;;6.28;;
30062;SDS011;16889;67.864;24.990;2023-12-28T06:35:28;14.45;;;5.65;;
30062;SDS011;16889;67.864;24.990;2023-12-28T06:40:14;17.40;;;4.90;;
30062;SDS011;16889;67.864;24.990;2023-12-28T06:45:00;13.70;;;4.82;;
30062;SDS011;16889;67.864;24.990;2023-12-28T06:49:46;19.00;;;4.80;;
30062;SDS011;16889;67.864;24.990;2023-12-28T06:54:32;8.73;;;3.38;;
30062;SDS011;16889;67.864;24.990;2023-12-28T06:59:19;10.23;;;3.75;;
30062;SDS011;16889;67.864;24.990;2023-12-28T07:04:05;16.25;;;3.75;;
30062;SDS011;16889;67.864;24.990;2023-12-28T07:08:51;14.57;;;4.72;;
30062;SDS011;16889;67.864;24.990;2023-12-28T07:13:37;19.73;;;5.18;;
30062;SDS011;16889;67.864;24.990;2023-12-28T07:18:23;14.45;;;4.25;;
30062;SDS011;16889;67.864;24.990;2023-12-28T07:23:09;14.40;;;4.15;;
30062;SDS011;16889;67.864;24.990;2023-12-28T07:27:55;9.63;;;3.22;;
30062;SDS011;16889;67.864;24.990;2023-12-28T07:32:41;17.20;;;4.60;;
30062;SDS011;16889;67.864;24.990;2023-12-28T07:37:27;12.70;;;3.60;;
30062;SDS011;16889;67.864;24.990;2023-12-28T07:42:13;8.48;;;3.13;;
30062;SDS011;16889;67.864;24.990;2023-12-28T07:47:00;7.18;;;2.80;;
30062;SDS011;16889;67.864;24.990;2023-12-28T07:51:47;9.02;;;3.92;;
30062;SDS011;16889;67.864;24.990;2023-12-28T07:56:33;17.63;;;4.13;;
30062;SDS011;16889;67.864;24.990;2023-12-28T08:01:19;10.65;;;3.95;;
30062;SDS011;16889;67.864;24.990;2023-12-28T08:06:07;9.45;;;2.97;;
30062;SDS011;16889;67.864;24.990;2023-12-28T08:10:53;22.02;;;3.95;;
30062;SDS011;16889;67.864;24.990;2023-12-28T08:15:39;12.23;;;4.03;;
30062;SDS011;16889;67.864;24.990;2023-12-28T08:20:25;10.50;;;3.42;;
30062;SDS011;16889;67.864;24.990;2023-12-28T08:25:12;7.72;;;2.88;;
30062;SDS011;16889;67.864;24.990;2023-12-28T08:29:58;12.52;;;3.40;;
30062;SDS011;16889;67.864;24.990;2023-12-28T08:34:44;8.07;;;2.95;;
30062;SDS011;16889;67.864;24.990;2023-12-28T08:39:31;17.52;;;4.55;;
30062;SDS011;16889;67.864;24.990;2023-12-28T08:44:17;13.45;;;4.38;;
30062;SDS011;16889;67.864;24.990;2023-12-28T08:49:03;17.35;;;4.70;;
30062;SDS011;16889;67.864;24.990;2023-12-28T08:53:49;15.60;;;4.65;;
30062;SDS011;16889;67.864;24.990;2023-12-28T08:58:35;16.83;;;5.10;;
30062;SDS011;16889;67.864;24.990;2023-12-28T09:03:21;17.42;;;5.40;;
30062;SDS011;16889;67.864;24.990;2023-12-28T09:08:07;18.15;;;5.30;;
30062;SDS011;16889;67.864;24.990;2023-12-28T09:12:53;21.48;;;5.32;;
30062;SDS011;16889;67.864;24.990;2023-12-28T09:17:39;14.80;;;4.75;;
30062;SDS011;16889;67.864;24.990;2023-12-28T09:22:25;20.08;;;5.70;;
30062;SDS011;16889;67.864;24.990;2023-12-28T09:27:11;25.08;;;6.03;;
30062;SDS011;16889;67.864;24.990;2023-12-28T09:31:57;23.42;;;5.97;;
30062;SDS011;16889;67.864;24.990;2023-12-28T09:36:43;19.50;;;5.85;;
30062;SDS011;16889;67.864;24.990;2023-12-28T09:41:30;17.15;;;5.35;;
30062;SDS011;16889;67.864;24.990;2023-12-28T09:46:22;16.50;;;5.20;;
30062;SDS011;16889;67.864;24.990;2023-12-28T09:51:08;17.02;;;5.03;;
30062;SDS011;16889;67.864;24.990;2023-12-28T09:55:56;17.40;;;5.45;;
30062;SDS011;16889;67.864;24.990;2023-12-28T10:00:46;14.05;;;5.25;;
30062;SDS011;16889;67.864;24.990;2023-12-28T10:05:36;19.80;;;5.57;;
30062;SDS011;16889;67.864;24.990;2023-12-28T10:10:22;17.40;;;4.72;;
30062;SDS011;16889;67.864;24.990;2023-12-28T10:15:08;20.90;;;6.15;;
30062;SDS011;16889;67.864;24.990;2023-12-28T10:19:55;19.17;;;6.03;;
30062;SDS011;16889;67.864;24.990;2023-12-28T10:24:47;16.17;;;5.13;;
30062;SDS011;16889;67.864;24.990;2023-12-28T10:29:33;19.30;;;5.15;;
30062;SDS011;16889;67.864;24.990;2023-12-28T10:34:19;18.35;;;5.13;;
30062;SDS011;16889;67.864;24.990;2023-12-28T10:39:05;16.42;;;5.55;;
30062;SDS011;16889;67.864;24.990;2023-12-28T10:44:02;19.02;;;5.50;;
30062;SDS011;16889;67.864;24.990;2023-12-28T10:48:50;14.52;;;4.45;;
30062;SDS011;16889;67.864;24.990;2023-12-28T10:53:45;13.32;;;5.60;;
30062;SDS011;16889;67.864;24.990;2023-12-28T10:58:47;18.40;;;4.95;;
30062;SDS011;16889;67.864;24.990;2023-12-28T11:03:44;17.77;;;5.55;;
30062;SDS011;16889;67.864;24.990;2023-12-28T11:08:36;15.77;;;5.38;;
30062;SDS011;16889;67.864;24.990;2023-12-28T11:13:29;16.02;;;5.88;;
30062;SDS011;16889;67.864;24.990;2023-12-28T11:18:17;16.05;;;4.93;;
30062;SDS011;16889;67.864;24.990;2023-12-28T11:23:04;14.18;;;5.88;;
30062;SDS011;16889;67.864;24.990;2023-12-28T11:27:51;14.55;;;4.70;;
30062;SDS011;16889;67.864;24.990;2023-12-28T11:32:38;12.32;;;4.50;;
30062;SDS011;16889;67.864;24.990;2023-12-28T11:37:31;14.35;;;5.35;;
30062;SDS011;16889;67.864;24.990;2023-12-28T11:42:21;15.25;;;6.10;;
30062;SDS011;16889;67.864;24.990;2023-12-28T11:47:11;16.63;;;5.25;;
30062;SDS011;16889;67.864;24.990;2023-12-28T11:52:01;14.80;;;5.10;;
30062;SDS011;16889;67.864;24.990;2023-12-28T11:56:50;13.18;;;4.22;;
30062;SDS011;16889;67.864;24.990;2023-12-28T12:01:37;12.73;;;4.00;;
30062;SDS011;16889;67.864;24.990;2023-12-28T12:06:23;8.05;;;3.20;;
30062;SDS011;16889;67.864;24.990;2023-12-28T12:11:10;10.98;;;4.18;;
30062;SDS011;16889;67.864;24.990;2023-12-28T12:15:56;13.38;;;5.00;;
30062;SDS011;16889;67.864;24.990;2023-12-28T12:20:43;15.23;;;5.20;;
30062;SDS011;16889;67.864;24.990;2023-12-28T12:25:29;9.75;;;4.40;;
30062;SDS011;16889;67.864;24.990;2023-12-28T12:30:15;10.23;;;4.88;;
30062;SDS011;16889;67.864;24.990;2023-12-28T12:35:01;8.55;;;3.70;;
30062;SDS011;16889;67.864;24.990;2023-12-28T12:39:47;13.30;;;3.90;;
30062;SDS011;16889;67.864;24.990;2023-12-28T12:44:34;10.05;;;4.05;;
30062;SDS011;16889;67.864;24.990;2023-12-28T12:49:20;10.38;;;4.05;;
30062;SDS011;16889;67.864;24.990;2023-12-28T12:54:07;16.38;;;5.22;;
30062;SDS011;16889;67.864;24.990;2023-12-28T12:58:54;15.27;;;4.43;;
30062;SDS011;16889;67.864;24.990;2023-12-28T13:03:41;12.13;;;4.53;;
30062;SDS011;16889;67.864;24.990;2023-12-28T13:08:27;17.45;;;5.63;;
30062;SDS011;16889;67.864;24.990;2023-12-28T13:13:13;14.45;;;4.70;;
30062;SDS011;16889;67.864;24.990;2023-12-28T13:17:59;13.65;;;4.53;;
30062;SDS011;16889;67.864;24.990;2023-12-28T13:22:45;10.52;;;4.38;;
30062;SDS011;16889;67.864;24.990;2023-12-28T13:27:32;11.10;;;4.32;;
30062;SDS011;16889;67.864;24.990;2023-12-28T13:32:18;13.57;;;4.57;;
30062;SDS011;16889;67.864;24.990;2023-12-28T13:37:04;16.23;;;4.28;;
30062;SDS011;16889;67.864;24.990;2023-12-28T13:41:50;12.43;;;4.45;;
30062;SDS011;16889;67.864;24.990;2023-12-28T13:46:36;14.00;;;3.80;;
30062;SDS011;16889;67.864;24.990;2023-12-28T13:51:22;11.15;;;4.03;;
30062;SDS011;16889;67.864;24.990;2023-12-28T13:56:08;9.68;;;3.33;;
30062;SDS011;16889;67.864;24.990;2023-12-28T14:00:54;8.15;;;3.20;;
30062;SDS011;16889;67.864;24.990;2023-12-28T14:05:40;7.20;;;3.22;;
30062;SDS011;16889;67.864;24.990;2023-12-28T14:10:27;7.90;;;3.50;;
30062;SDS011;16889;67.864;24.990;2023-12-28T14:15:13;14.13;;;4.20;;
30062;SDS011;16889;67.864;24.990;2023-12-28T14:20:02;8.15;;;3.45;;
30062;SDS011;16889;67.864;24.990;2023-12-28T14:24:49;6.63;;;2.80;;
30062;SDS011;16889;67.864;24.990;2023-12-28T14:29:37;9.38;;;4.10;;
30062;SDS011;16889;67.864;24.990;2023-12-28T14:34:23;8.68;;;3.30;;
30062;SDS011;16889;67.864;24.990;2023-12-28T14:39:10;8.02;;;3.55;;
30062;SDS011;16889;67.864;24.990;2023-12-28T14:43:57;7.45;;;3.03;;
30062;SDS011;16889;67.864;24.990;2023-12-28T14:48:43;9.32;;;3.35;;
30062;SDS011;16889;67.864;24.990;2023-12-28T14:53:28;6.50;;;3.17;;
30062;SDS011;16889;67.864;24.990;2023-12-28T14:58:14;8.45;;;4.07;;
30062;SDS011;16889;67.864;24.990;2023-12-28T15:03:02;7.95;;;3.63;;
30062;SDS011;16889;67.864;24.990;2023-12-28T15:07:48;13.02;;;4.07;;
30062;SDS011;16889;67.864;24.990;2023-12-28T15:12:34;14.27;;;4.20;;
30062;SDS011;16889;67.864;24.990;2023-12-28T15:17:20;15.00;;;3.80;;
30062;SDS011;16889;67.864;24.990;2023-12-28T15:22:07;8.95;;;3.25;;
30062;SDS011;16889;67.864;24.990;2023-12-28T15:26:53;7.35;;;3.33;;
30062;SDS011;16889;67.864;24.990;2023-12-28T15:31:39;7.20;;;3.25;;
30062;SDS011;16889;67.864;24.990;2023-12-28T15:36:25;9.45;;;3.45;;
30062;SDS011;16889;67.864;24.990;2023-12-28T15:41:11;10.02;;;3.85;;
30062;SDS011;16889;67.864;24.990;2023-12-28T15:45:57;7.10;;;2.97;;
30062;SDS011;16889;67.864;24.990;2023-12-28T15:50:43;9.60;;;3.75;;
30062;SDS011;16889;67.864;24.990;2023-12-28T15:55:29;8.77;;;3.40;;
30062;SDS011;16889;67.864;24.990;2023-12-28T16:00:15;5.25;;;2.55;;
30062;SDS011;16889;67.864;24.990;2023-12-28T16:05:01;7.53;;;3.38;;
30062;SDS011;16889;67.864;24.990;2023-12-28T16:09:48;8.93;;;3.58;;
30062;SDS011;16889;67.864;24.990;2023-12-28T16:14:34;10.85;;;3.80;;
30062;SDS011;16889;67.864;24.990;2023-12-28T16:19:21;7.15;;;3.15;;
30062;SDS011;16889;67.864;24.990;2023-12-28T16:24:07;7.72;;;3.10;;
30062;SDS011;16889;67.864;24.990;2023-12-28T16:28:53;7.97;;;3.20;;
30062;SDS011;16889;67.864;24.990;2023-12-28T16:33:39;9.57;;;3.53;;
30062;SDS011;16889;67.864;24.990;2023-12-28T16:38:25;6.68;;;2.95;;
30062;SDS011;16889;67.864;24.990;2023-12-28T16:43:11;6.05;;;2.90;;
30062;SDS011;16889;67.864;24.990;2023-12-28T16:47:58;8.15;;;3.42;;
30062;SDS011;16889;67.864;24.990;2023-12-28T16:52:44;8.15;;;3.00;;
30062;SDS011;16889;67.864;24.990;2023-12-28T17:02:15;9.17;;;3.30;;
30062;SDS011;16889;67.864;24.990;2023-12-28T17:07:01;7.20;;;3.47;;
30062;SDS011;16889;67.864;24.990;2023-12-28T17:11:51;9.65;;;2.65;;
30062;SDS011;16889;67.864;24.990;2023-12-28T17:16:44;8.02;;;3.80;;
30062;SDS011;16889;67.864;24.990;2023-12-28T17:21:30;6.85;;;3.38;;
30062;SDS011;16889;67.864;24.990;2023-12-28T17:26:22;5.78;;;2.83;;
30062;SDS011;16889;67.864;24.990;2023-12-28T17:31:11;9.35;;;3.13;;
30062;SDS011;16889;67.864;24.990;2023-12-28T17:35:58;6.50;;;3.13;;
30062;SDS011;16889;67.864;24.990;2023-12-28T17:40:45;7.05;;;2.65;;
30062;SDS011;16889;67.864;24.990;2023-12-28T17:45:35;8.15;;;3.55;;
30062;SDS011;16889;67.864;24.990;2023-12-28T17:50:49;8.35;;;3.28;;
30062;SDS011;16889;67.864;24.990;2023-12-28T17:55:37;7.90;;;3.55;;
30062;SDS011;16889;67.864;24.990;2023-12-28T18:05:09;6.50;;;2.88;;
30062;SDS011;16889;67.864;24.990;2023-12-28T18:14:41;7.80;;;3.50;;
30062;SDS011;16889;67.864;24.990;2023-12-28T18:19:27;8.38;;;4.38;;
30062;SDS011;16889;67.864;24.990;2023-12-28T18:24:14;9.02;;;3.53;;
30062;SDS011;16889;67.864;24.990;2023-12-28T18:29:00;7.90;;;3.35;;
30062;SDS011;16889;67.864;24.990;2023-12-28T18:33:46;10.48;;;3.60;;
30062;SDS011;16889;67.864;24.990;2023-12-28T18:38:31;10.13;;;3.70;;
30062;SDS011;16889;67.864;24.990;2023-12-28T18:48:03;7.77;;;3.13;;
30062;SDS011;16889;67.864;24.990;2023-12-28T18:52:51;9.25;;;3.40;;
30062;SDS011;16889;67.864;24.990;2023-12-28T18:57:37;8.55;;;3.55;;
30062;SDS011;16889;67.864;24.990;2023-12-28T19:02:23;9.80;;;3.38;;
30062;SDS011;16889;67.864;24.990;2023-12-28T19:07:11;8.65;;;3.25;;
30062;SDS011;16889;67.864;24.990;2023-12-28T19:11:57;9.95;;;3.97;;
30062;SDS011;16889;67.864;24.990;2023-12-28T19:16:43;8.10;;;3.35;;
30062;SDS011;16889;67.864;24.990;2023-12-28T19:21:28;8.52;;;3.60;;
30062;SDS011;16889;67.864;24.990;2023-12-28T19:26:14;11.82;;;3.22;;
30062;SDS011;16889;67.864;24.990;2023-12-28T19:31:04;6.13;;;2.83;;
30062;SDS011;16889;67.864;24.990;2023-12-28T19:35:50;7.72;;;2.78;;
30062;SDS011;16889;67.864;24.990;2023-12-28T19:40:36;7.55;;;3.20;;
30062;SDS011;16889;67.864;24.990;2023-12-28T19:45:22;9.18;;;2.97;;
30062;SDS011;16889;67.864;24.990;2023-12-28T19:50:08;7.72;;;3.08;;
30062;SDS011;16889;67.864;24.990;2023-12-28T19:54:54;7.03;;;2.88;;
30062;SDS011;16889;67.864;24.990;2023-12-28T19:59:41;10.45;;;2.92;;
30062;SDS011;16889;67.864;24.990;2023-12-28T20:04:27;8.23;;;2.50;;
30062;SDS011;16889;67.864;24.990;2023-12-28T20:09:13;4.72;;;2.38;;
30062;SDS011;16889;67.864;24.990;2023-12-28T20:14:00;3.80;;;2.00;;
30062;SDS011;16889;67.864;24.990;2023-12-28T20:18:46;4.07;;;1.67;;
30062;SDS011;16889;67.864;24.990;2023-12-28T20:23:32;3.90;;;1.73;;
30062;SDS011;16889;67.864;24.990;2023-12-28T20:28:18;3.30;;;1.75;;
30062;SDS011;16889;67.864;24.990;2023-12-28T20:33:04;3.47;;;1.58;;
30062;SDS011;16889;67.864;24.990;2023-12-28T20:37:51;3.80;;;1.75;;
30062;SDS011;16889;67.864;24.990;2023-12-28T20:42:37;3.85;;;1.80;;
30062;SDS011;16889;67.864;24.990;2023-12-28T20:47:23;4.78;;;2.35;;
30062;SDS011;16889;67.864;24.990;2023-12-28T20:52:09;3.17;;;1.48;;
30062;SDS011;16889;67.864;24.990;2023-12-28T20:56:55;3.65;;;1.70;;
30062;SDS011;16889;67.864;24.990;2023-12-28T21:01:42;4.10;;;1.88;;
30062;SDS011;16889;67.864;24.990;2023-12-28T21:06:27;3.80;;;1.98;;
30062;SDS011;16889;67.864;24.990;2023-12-28T21:11:13;3.55;;;1.92;;
30062;SDS011;16889;67.864;24.990;2023-12-28T21:15:59;3.33;;;1.70;;
30062;SDS011;16889;67.864;24.990;2023-12-28T21:20:46;3.35;;;1.80;;
30062;SDS011;16889;67.864;24.990;2023-12-28T21:25:33;4.13;;;2.00;;
30062;SDS011;16889;67.864;24.990;2023-12-28T21:30:19;3.83;;;1.90;;
30062;SDS011;16889;67.864;24.990;2023-12-28T21:35:05;4.10;;;1.95;;
30062;SDS011;16889;67.864;24.990;2023-12-28T21:39:51;3.50;;;1.83;;
30062;SDS011;16889;67.864;24.990;2023-12-28T21:44:37;3.25;;;1.70;;
30062;SDS011;16889;67.864;24.990;2023-12-28T21:49:23;3.38;;;1.70;;
30062;SDS011;16889;67.864;24.990;2023-12-28T21:54:09;4.88;;;2.05;;
30062;SDS011;16889;67.864;24.990;2023-12-28T21:58:55;3.45;;;1.83;;
30062;SDS011;16889;67.864;24.990;2023-12-28T22:03:41;3.92;;;2.10;;
30062;SDS011;16889;67.864;24.990;2023-12-28T22:08:27;4.90;;;2.28;;
30062;SDS011;16889;67.864;24.990;2023-12-28T22:13:13;3.10;;;1.60;;
30062;SDS011;16889;67.864;24.990;2023-12-28T22:17:59;3.83;;;1.77;;
30062;SDS011;16889;67.864;24.990;2023-12-28T22:22:45;3.13;;;1.70;;
30062;SDS011;16889;67.864;24.990;2023-12-28T22:27:31;4.72;;;2.35;;
30062;SDS011;16889;67.864;24.990;2023-12-28T22:32:17;3.45;;;2.00;;
30062;SDS011;16889;67.864;24.990;2023-12-28T22:37:03;3.80;;;2.08;;
30062;SDS011;16889;67.864;24.990;2023-12-28T22:41:50;5.07;;;2.22;;
30062;SDS011;16889;67.864;24.990;2023-12-28T22:46:37;4.60;;;1.95;;
30062;SDS011;16889;67.864;24.990;2023-12-28T22:51:23;3.40;;;1.80;;
30062;SDS011;16889;67.864;24.990;2023-12-28T22:56:09;2.90;;;1.75;;
30062;SDS011;16889;67.864;24.990;2023-12-28T23:00:54;5.20;;;2.22;;
30062;SDS011;16889;67.864;24.990;2023-12-28T23:05:40;5.72;;;1.90;;
30062;SDS011;16889;67.864;24.990;2023-12-28T23:10:26;4.20;;;2.33;;
30062;SDS011;16889;67.864;24.990;2023-12-28T23:15:13;5.00;;;2.20;;
30062;SDS011;16889;67.864;24.990;2023-12-28T23:20:00;3.60;;;1.95;;
30062;SDS011;16889;67.864;24.990;2023-12-28T23:24:46;3.45;;;2.20;;
30062;SDS011;16889;67.864;24.990;2023-12-28T23:29:32;4.55;;;2.38;;
30062;SDS011;16889;67.864;24.990;2023-12-28T23:34:18;4.85;;;2.20;;
30062;SDS011;16889;67.864;24.990;2023-12-28T23:39:04;4.97;;;2.13;;
30062;SDS011;16889;67.864;24.990;2023-12-28T23:43:51;3.88;;;2.00;;
30062;SDS011;16889;67.864;24.990;2023-12-28T23:48:37;4.72;;;2.10;;
30062;SDS011;16889;67.864;24.990;2023-12-28T23:53:23;3.85;;;1.73;;
30062;SDS011;16889;67.864;24.990;2023-12-28T23:58:09;3.78;;;1.70;;
